createdAt,value
2018-04-11T00:00:42.373Z,56.70
2018-04-11T00:03:08.952Z,56.20
2018-04-11T00:05:35.625Z,56.20
2018-04-11T00:08:03.252Z,57.10
2018-04-11T00:10:29.808Z,57.10
2018-04-11T00:12:57.292Z,56.90
2018-04-11T00:15:24.348Z,56.90
2018-04-11T00:17:50.622Z,56.20
2018-04-11T00:20:16.845Z,56.20
2018-04-11T00:22:43.506Z,56.00
2018-04-11T00:25:09.917Z,55.80
2018-04-11T00:27:36.649Z,56.00
2018-04-11T00:30:04.134Z,56.00
2018-04-11T00:32:38.319Z,56.20
2018-04-11T00:35:04.836Z,56.10
2018-04-11T00:37:32.315Z,55.50
2018-04-11T00:40:00.081Z,55.70
2018-04-11T00:42:26.342Z,55.70
2018-04-11T00:44:53.282Z,56.10
2018-04-11T00:47:20.686Z,56.50
2018-04-11T00:49:47.846Z,57.30
2018-04-11T00:52:15.818Z,59.30
2018-04-11T00:54:42.016Z,59.30
2018-04-11T00:57:08.206Z,61.50
2018-04-11T00:59:35.736Z,62.60
2018-04-11T01:02:01.977Z,62.50
2018-04-11T01:04:28.176Z,64.10
2018-04-11T01:06:54.850Z,63.90
2018-04-11T01:09:21.791Z,64.00
2018-04-11T01:11:49.338Z,64.80
2018-04-11T01:14:16.580Z,64.90
2018-04-11T01:16:42.814Z,66.20
2018-04-11T01:19:10.047Z,66.00
2018-04-11T01:21:36.403Z,64.00
2018-04-11T01:24:03.906Z,66.00
2018-04-11T01:26:30.142Z,65.90
2018-04-11T01:28:56.351Z,64.20
2018-04-11T01:31:23.580Z,64.20
2018-04-11T01:33:50.830Z,63.00
2018-04-11T01:36:18.005Z,63.50
2018-04-11T01:38:46.286Z,62.20
2018-04-11T01:41:12.649Z,62.20
2018-04-11T01:43:39.137Z,61.90
2018-04-11T01:46:06.837Z,65.90
2018-04-11T01:48:33.018Z,65.90
2018-04-11T01:51:00.600Z,68.80
2018-04-11T01:53:27.170Z,68.80
2018-04-11T01:55:54.804Z,65.90
2018-04-11T01:58:21.528Z,65.90
2018-04-11T02:00:47.749Z,65.00
2018-04-11T02:03:14.693Z,63.50
2018-04-11T02:05:41.349Z,63.40
2018-04-11T02:08:09.470Z,63.50
2018-04-11T02:10:35.720Z,63.50
2018-04-11T02:13:02.907Z,64.30
2018-04-11T02:15:29.748Z,64.30
2018-04-11T02:17:56.005Z,63.50
2018-04-11T02:20:23.255Z,63.10
2018-04-11T02:22:49.457Z,62.70
2018-04-11T02:25:15.845Z,65.90
2018-04-11T02:27:43.220Z,68.70
2018-04-11T02:30:09.442Z,68.60
2018-04-11T02:32:35.930Z,66.80
2018-04-11T02:35:02.919Z,68.40
2018-04-11T02:37:29.868Z,68.70
2018-04-11T02:39:56.671Z,68.60
2018-04-11T02:42:22.877Z,69.80
2018-04-11T02:44:49.327Z,69.00
2018-04-11T02:47:16.597Z,68.10
2018-04-11T02:49:43.541Z,69.80
2018-04-11T02:52:10.395Z,69.70
2018-04-11T02:54:37.376Z,70.00
2018-04-11T02:57:04.968Z,70.60
2018-04-11T02:59:32.079Z,70.80
2018-04-11T03:01:59.832Z,69.90
2018-04-11T03:04:26.053Z,68.10
2018-04-11T03:06:52.807Z,67.20
2018-04-11T03:09:19.597Z,67.90
2018-04-11T03:11:45.898Z,68.00
2018-04-11T03:14:12.092Z,67.30
2018-04-11T03:16:39.206Z,66.40
2018-04-11T03:19:06.417Z,66.40
2018-04-11T03:21:32.605Z,67.30
2018-04-11T03:24:00.752Z,66.70
2018-04-11T03:26:28.074Z,66.70
2018-04-11T03:28:55.100Z,66.60
2018-04-11T03:31:21.325Z,66.40
2018-04-11T03:33:49.074Z,66.40
2018-04-11T03:36:16.166Z,65.80
2018-04-11T03:38:43.140Z,65.90
2018-04-11T03:41:09.364Z,65.80
2018-04-11T03:43:35.555Z,65.70
2018-04-11T03:46:01.784Z,65.60
2018-04-11T03:48:28.012Z,66.10
2018-04-11T03:50:54.282Z,66.00
2018-04-11T03:53:20.468Z,65.90
2018-04-11T03:55:47.504Z,66.80
2018-04-11T03:58:14.245Z,67.30
2018-04-11T04:00:41.313Z,66.60
2018-04-11T04:03:08.311Z,66.60
2018-04-11T04:05:36.026Z,66.90
2018-04-11T04:08:02.295Z,67.00
2018-04-11T04:10:29.746Z,68.90
2018-04-11T04:12:56.658Z,69.00
2018-04-11T04:15:35.919Z,68.60
2018-04-11T04:18:14.613Z,68.90
2018-04-11T04:20:41.594Z,68.50
2018-04-11T04:23:08.516Z,68.00
2018-04-11T04:25:34.761Z,68.00
2018-04-11T04:28:01.554Z,67.50
2018-04-11T04:30:27.770Z,68.70
2018-04-11T04:32:54.006Z,68.70
2018-04-11T04:35:20.318Z,68.80
2018-04-11T04:37:46.494Z,69.20
2018-04-11T04:40:13.415Z,68.70
2018-04-11T04:42:39.992Z,68.40
2018-04-11T04:45:06.212Z,69.20
2018-04-11T04:47:32.991Z,69.50
2018-04-11T04:49:59.737Z,69.30
2018-04-11T04:52:25.961Z,70.80
2018-04-11T04:54:53.192Z,70.70
2018-04-11T04:57:20.113Z,74.60
2018-04-11T04:59:46.962Z,74.60
2018-04-11T05:02:13.595Z,74.70
2018-04-11T05:04:39.938Z,74.70
2018-04-11T05:07:08.002Z,75.20
2018-04-11T05:09:34.784Z,74.50
2018-04-11T05:12:01.807Z,74.80
2018-04-11T05:14:28.701Z,74.80
2018-04-11T05:16:55.653Z,75.50
2018-04-11T05:19:22.388Z,75.50
2018-04-11T05:21:48.592Z,76.90
2018-04-11T05:24:15.726Z,76.90
2018-04-11T05:26:43.731Z,74.90
2018-04-11T05:29:10.871Z,75.80
2018-04-11T05:31:37.988Z,77.40
2018-04-11T05:34:04.267Z,77.40
2018-04-11T05:36:30.469Z,78.70
2018-04-11T05:38:57.274Z,79.40
2018-04-11T05:41:24.614Z,79.80
2018-04-11T05:43:51.692Z,80.50
2018-04-11T05:46:17.978Z,80.50
2018-04-11T05:48:44.336Z,80.70
2018-04-11T05:51:11.332Z,79.60
2018-04-11T05:53:38.604Z,79.60
2018-04-11T05:56:04.958Z,78.10
2018-04-11T05:58:31.913Z,80.30
2018-04-11T06:00:59.690Z,79.00
2018-04-11T06:03:26.724Z,80.30
2018-04-11T06:05:53.735Z,80.10
2018-04-11T06:08:21.581Z,80.10
2018-04-11T06:10:47.806Z,78.60
2018-04-11T06:13:14.569Z,79.50
2018-04-11T06:15:41.128Z,78.70
2018-04-11T06:18:08.283Z,78.80
2018-04-11T06:20:35.684Z,78.70
2018-04-11T06:23:02.749Z,78.80
2018-04-11T06:25:29.167Z,78.70
2018-04-11T06:27:56.622Z,77.70
2018-04-11T06:30:22.992Z,77.70
2018-04-11T06:32:50.191Z,77.10
2018-04-11T06:35:16.895Z,77.10
2018-04-11T06:37:43.856Z,77.00
2018-04-11T06:40:10.684Z,77.00
2018-04-11T06:42:36.913Z,76.60
2018-04-11T06:45:04.133Z,76.40
2018-04-11T06:47:31.979Z,76.40
2018-04-11T06:50:00.153Z,76.90
2018-04-11T06:52:27.136Z,76.70
2018-04-11T06:54:54.213Z,75.80
2018-04-11T06:57:20.980Z,75.80
2018-04-11T06:59:47.322Z,75.60
2018-04-11T07:02:14.089Z,73.10
2018-04-11T07:04:40.474Z,72.50
2018-04-11T07:07:07.992Z,71.90
2018-04-11T07:09:35.999Z,71.40
2018-04-11T07:12:02.593Z,71.40
2018-04-11T07:14:30.161Z,67.80
2018-04-11T07:16:57.643Z,68.60
2018-04-11T07:19:24.036Z,68.60
2018-04-11T07:21:50.993Z,68.60
2018-04-11T07:24:18.053Z,68.10
2018-04-11T07:26:44.237Z,68.00
2018-04-11T07:29:10.882Z,67.20
2018-04-11T07:31:37.869Z,62.90
2018-04-11T07:34:04.692Z,62.90
2018-04-11T07:36:31.034Z,64.40
2018-04-11T07:38:57.253Z,63.10
2018-04-11T07:41:24.867Z,60.00
2018-04-11T07:43:51.685Z,59.40
2018-04-11T07:46:17.966Z,61.10
2018-04-11T07:48:45.679Z,59.80
2018-04-11T07:51:12.092Z,58.90
2018-04-11T07:53:39.261Z,60.30
2018-04-11T07:56:06.895Z,60.60
2018-04-11T07:58:33.156Z,60.60
2018-04-11T08:00:59.519Z,60.40
2018-04-11T08:03:26.542Z,58.40
2018-04-11T08:05:52.824Z,58.40
2018-04-11T08:08:19.815Z,58.10
2018-04-11T08:10:46.346Z,57.90
2018-04-11T08:13:13.333Z,58.80
2018-04-11T08:15:40.523Z,58.70
2018-04-11T08:18:06.950Z,59.20
2018-04-11T08:20:33.171Z,59.30
2018-04-11T08:22:59.747Z,58.20
2018-04-11T08:25:26.027Z,59.30
2018-04-11T08:27:53.423Z,59.10
2018-04-11T08:30:20.453Z,58.50
2018-04-11T08:32:46.859Z,58.50
2018-04-11T08:35:14.328Z,58.70
2018-04-11T08:37:41.276Z,58.70
2018-04-11T08:40:08.564Z,57.10
2018-04-11T08:42:35.974Z,57.10
2018-04-11T08:45:02.933Z,58.60
2018-04-11T08:47:29.118Z,58.50
2018-04-11T08:49:55.423Z,58.50
2018-04-11T08:52:22.037Z,57.90
2018-04-11T08:54:48.259Z,57.60
2018-04-11T08:57:14.493Z,58.10
2018-04-11T08:59:41.283Z,58.10
2018-04-11T09:02:08.274Z,57.40
2018-04-11T09:04:34.499Z,57.40
2018-04-11T09:07:01.405Z,56.40
2018-04-11T09:09:27.941Z,56.80
2018-04-11T09:11:55.432Z,55.60
2018-04-11T09:14:21.673Z,55.60
2018-04-11T09:16:48.111Z,55.20
2018-04-11T09:19:15.188Z,54.40
2018-04-11T09:21:42.041Z,54.50
2018-04-11T09:24:08.776Z,55.00
2018-04-11T09:26:34.996Z,55.80
2018-04-11T09:29:02.718Z,55.00
2018-04-11T09:31:29.433Z,55.50
2018-04-11T09:33:56.414Z,54.70
2018-04-11T09:36:22.617Z,54.70
2018-04-11T09:38:48.936Z,55.10
2018-04-11T09:41:15.897Z,54.40
2018-04-11T09:43:42.793Z,54.40
2018-04-11T09:46:09.579Z,54.60
2018-04-11T09:48:36.663Z,53.80
2018-04-11T09:51:04.015Z,54.30
2018-04-11T09:53:31.600Z,53.30
2018-04-11T09:55:58.122Z,53.20
2018-04-11T09:58:25.353Z,51.40
2018-04-11T10:00:53.465Z,51.40
2018-04-11T10:03:22.732Z,52.50
2018-04-11T10:05:49.777Z,51.90
2018-04-11T10:08:17.821Z,51.90
2018-04-11T10:10:44.404Z,50.90
2018-04-11T10:13:11.672Z,51.50
2018-04-11T10:15:38.953Z,52.70
2018-04-11T10:18:06.553Z,51.90
2018-04-11T10:20:33.597Z,52.20
2018-04-11T10:22:59.823Z,52.10
2018-04-11T10:25:27.004Z,52.40
2018-04-11T10:27:53.305Z,51.20
2018-04-11T10:30:20.540Z,51.50
2018-04-11T10:32:47.573Z,51.50
2018-04-11T10:35:14.307Z,51.50
2018-04-11T10:37:40.547Z,50.90
2018-04-11T10:40:07.053Z,50.70
2018-04-11T10:42:34.911Z,51.10
2018-04-11T10:45:02.029Z,51.10
2018-04-11T10:47:28.314Z,51.10
2018-04-11T10:49:54.706Z,51.80
2018-04-11T10:52:21.694Z,50.80
2018-04-11T10:54:48.131Z,50.80
2018-04-11T10:57:15.769Z,51.60
2018-04-11T10:59:42.740Z,51.20
2018-04-11T11:02:09.240Z,51.20
2018-04-11T11:04:36.312Z,51.30
2018-04-11T11:07:03.787Z,50.90
2018-04-11T11:09:30.068Z,50.80
2018-04-11T11:11:56.399Z,51.10
2018-04-11T11:14:23.265Z,51.10
2018-04-11T11:16:49.489Z,51.20
2018-04-11T11:19:16.738Z,49.80
2018-04-11T11:21:43.726Z,50.00
2018-04-11T11:24:10.469Z,50.00
2018-04-11T11:26:37.999Z,50.00
2018-04-11T11:29:05.015Z,50.30
2018-04-11T11:31:31.714Z,50.30
2018-04-11T11:33:58.013Z,50.30
2018-04-11T11:36:24.231Z,49.80
2018-04-11T11:38:51.385Z,49.30
2018-04-11T11:41:18.027Z,49.30
2018-04-11T11:43:45.253Z,49.60
2018-04-11T11:46:12.216Z,48.10
2018-04-11T11:48:39.633Z,47.90
2018-04-11T11:51:05.954Z,47.90
2018-04-11T11:53:32.329Z,47.50
2018-04-11T11:55:59.390Z,47.30
2018-04-11T11:58:26.039Z,47.20
2018-04-11T12:00:53.405Z,47.10
2018-04-11T12:03:20.821Z,45.90
2018-04-11T12:05:47.868Z,45.20
2018-04-11T12:08:15.378Z,46.20
2018-04-11T12:10:41.710Z,46.20
2018-04-11T12:13:08.982Z,46.80
2018-04-11T12:15:35.632Z,45.40
2018-04-11T12:18:02.633Z,45.70
2018-04-11T12:20:28.960Z,45.70
2018-04-11T12:22:56.966Z,44.70
2018-04-11T12:25:23.364Z,44.40
2018-04-11T12:27:50.383Z,43.90
2018-04-11T12:30:16.670Z,43.90
2018-04-11T12:32:42.880Z,44.10
2018-04-11T12:35:09.506Z,44.70
2018-04-11T12:37:36.881Z,42.60
2018-04-11T12:40:04.221Z,42.20
2018-04-11T12:42:30.459Z,42.10
2018-04-11T12:44:56.663Z,42.20
2018-04-11T12:47:23.536Z,40.50
2018-04-11T12:49:49.734Z,40.40
2018-04-11T12:52:16.481Z,39.50
2018-04-11T12:54:43.075Z,38.00
2018-04-11T12:57:10.082Z,38.70
2018-04-11T12:59:36.873Z,38.70
2018-04-11T13:02:03.616Z,38.10
2018-04-11T13:04:30.359Z,38.10
2018-04-11T13:06:56.679Z,38.20
2018-04-11T13:22:23.170Z,38.30
2018-04-11T13:24:50.150Z,34.90
2018-04-11T13:27:16.580Z,34.90
2018-04-11T13:29:44.676Z,32.20
2018-04-11T13:32:18.084Z,32.20
2018-04-11T13:34:44.470Z,30.10
2018-04-11T13:37:11.676Z,31.60
2018-04-11T13:39:37.884Z,31.50
2018-04-11T13:42:04.842Z,31.20
2018-04-11T13:44:32.512Z,31.80
2018-04-11T13:46:58.717Z,31.80
2018-04-11T13:49:25.043Z,31.60
2018-04-11T13:51:51.228Z,31.50
2018-04-11T13:54:18.571Z,31.80
2018-04-11T13:56:46.173Z,30.70
2018-04-11T13:59:12.671Z,30.70
2018-04-11T14:01:39.694Z,32.00
2018-04-11T14:04:06.335Z,32.00
2018-04-11T14:06:33.971Z,31.00
2018-04-11T14:09:00.711Z,31.00
2018-04-11T14:11:27.047Z,31.60
2018-04-11T14:13:54.154Z,31.80
2018-04-11T14:16:21.129Z,30.60
2018-04-11T14:18:48.260Z,30.70
2018-04-11T14:21:14.461Z,31.20
2018-04-11T14:23:41.699Z,30.40
2018-04-11T14:26:08.763Z,29.70
2018-04-11T14:28:35.806Z,29.50
2018-04-11T14:31:03.505Z,28.80
2018-04-11T14:33:30.401Z,28.90
2018-04-11T14:35:58.880Z,28.60
2018-04-11T14:38:26.419Z,28.60
2018-04-11T14:40:53.643Z,29.10
2018-04-11T14:43:20.408Z,29.50
2018-04-11T14:45:47.199Z,30.40
2018-04-11T14:48:14.374Z,31.80
2018-04-11T14:50:42.005Z,32.20
2018-04-11T14:53:09.568Z,32.30
2018-04-11T14:55:36.592Z,32.10
2018-04-11T14:58:02.825Z,32.00
2018-04-11T15:00:29.755Z,32.30
2018-04-11T15:02:55.940Z,32.20
2018-04-11T15:05:22.229Z,31.50
2018-04-11T15:07:49.288Z,31.20
2018-04-11T15:10:16.311Z,30.80
2018-04-11T15:12:43.199Z,30.80
2018-04-11T15:15:10.786Z,32.10
2018-04-11T15:17:37.263Z,32.00
2018-04-11T15:20:04.252Z,30.70
2018-04-11T15:22:31.705Z,30.70
2018-04-11T15:24:58.783Z,29.90
2018-04-11T15:27:25.838Z,29.90
2018-04-11T15:29:52.616Z,30.50
2018-04-11T15:32:19.376Z,30.30
2018-04-11T15:34:46.520Z,30.50
2018-04-11T15:37:12.713Z,31.10
2018-04-11T15:39:40.609Z,31.90
2018-04-11T15:42:06.870Z,31.80
2018-04-11T15:44:33.085Z,32.40
2018-04-11T15:46:59.279Z,32.90
2018-04-11T15:49:27.434Z,32.60
2018-04-11T15:51:55.499Z,33.00
2018-04-11T15:54:22.725Z,32.90
2018-04-11T15:56:50.961Z,33.30
2018-04-11T15:59:17.955Z,33.30
2018-04-11T16:01:44.614Z,33.10
2018-04-11T16:04:12.112Z,33.30
2018-04-11T16:06:38.405Z,33.20
2018-04-11T16:09:05.372Z,33.10
2018-04-11T16:11:31.547Z,33.10
2018-04-11T16:13:58.709Z,33.10
2018-04-11T16:16:25.969Z,33.00
2018-04-11T16:18:53.973Z,32.70
2018-04-11T16:21:20.973Z,32.60
2018-04-11T16:23:48.152Z,32.60
2018-04-11T16:26:14.961Z,32.50
2018-04-11T16:28:42.242Z,32.00
2018-04-11T16:31:09.454Z,32.20
2018-04-11T16:33:37.271Z,32.10
2018-04-11T16:36:04.893Z,30.90
2018-04-11T16:38:31.416Z,30.90
2018-04-11T16:40:57.630Z,31.60
2018-04-11T16:43:23.826Z,32.00
2018-04-11T16:45:50.054Z,31.30
2018-04-11T16:48:16.256Z,31.20
2018-04-11T16:50:43.732Z,31.30
2018-04-11T16:53:11.665Z,31.10
2018-04-11T16:55:38.301Z,31.00
2018-04-11T16:58:05.304Z,31.40
2018-04-11T17:00:31.498Z,31.20
2018-04-11T17:02:59.166Z,31.00
2018-04-11T17:05:26.745Z,30.80
2018-04-11T17:07:53.237Z,30.80
2018-04-11T17:10:19.641Z,31.10
2018-04-11T17:12:45.868Z,31.20
2018-04-11T17:15:12.127Z,31.50
2018-04-11T17:17:38.346Z,31.10
2018-04-11T17:20:04.609Z,31.20
2018-04-11T17:22:43.163Z,31.00
2018-04-11T17:25:21.741Z,31.10
2018-04-11T17:28:01.098Z,31.50
2018-04-11T17:30:39.953Z,31.20
2018-04-11T17:33:06.942Z,31.40
2018-04-11T17:35:34.216Z,32.10
2018-04-11T17:38:01.063Z,31.90
2018-04-11T17:40:27.318Z,31.70
2018-04-11T17:42:54.790Z,32.00
2018-04-11T17:45:21.559Z,32.20
2018-04-11T17:47:48.744Z,32.60
2018-04-11T17:50:16.394Z,32.60
2018-04-11T17:52:43.651Z,32.60
2018-04-11T17:55:10.907Z,32.90
2018-04-11T17:57:38.164Z,33.70
2018-04-11T18:00:04.531Z,33.80
2018-04-11T18:02:30.802Z,33.30
2018-04-11T18:04:57.100Z,34.10
2018-04-11T18:07:23.690Z,34.00
2018-04-11T18:09:51.310Z,34.20
2018-04-11T18:12:18.280Z,34.30
2018-04-11T18:14:44.478Z,34.20
2018-04-11T18:17:11.422Z,35.10
2018-04-11T18:19:38.981Z,35.40
2018-04-11T18:22:05.962Z,35.20
2018-04-11T18:24:33.429Z,35.10
2018-04-11T18:26:59.817Z,35.30
2018-04-11T18:29:27.478Z,35.20
2018-04-11T18:31:55.607Z,35.10
2018-04-11T18:34:23.091Z,35.30
2018-04-11T18:36:49.846Z,35.30
2018-04-11T18:39:16.819Z,35.30
2018-04-11T18:41:43.133Z,35.20
2018-04-11T18:44:09.634Z,35.70
2018-04-11T18:46:35.970Z,35.60
2018-04-11T18:49:03.362Z,35.50
2018-04-11T18:51:29.822Z,35.70
2018-04-11T18:53:56.832Z,35.60
2018-04-11T18:56:23.826Z,36.30
2018-04-11T18:58:50.104Z,36.30
2018-04-11T19:01:17.140Z,35.80
2018-04-11T19:03:43.467Z,35.80
2018-04-11T19:06:10.582Z,35.60
2018-04-11T19:08:37.147Z,35.50
2018-04-11T19:11:04.411Z,35.70
2018-04-11T19:13:31.279Z,35.70
2018-04-11T19:15:57.721Z,35.30
2018-04-11T19:18:25.907Z,36.50
2018-04-11T19:20:54.389Z,35.90
2018-04-11T19:23:22.032Z,35.90
2018-04-11T19:25:48.658Z,35.00
2018-04-11T19:28:15.453Z,35.50
2018-04-11T19:30:41.767Z,35.50
2018-04-11T19:33:08.453Z,35.40
2018-04-11T19:35:35.827Z,35.40
2018-04-11T19:38:02.943Z,35.50
2018-04-11T19:40:30.819Z,36.00
2018-04-11T19:42:57.875Z,35.50
2018-04-11T19:45:25.003Z,35.80
2018-04-11T19:47:51.978Z,35.80
2018-04-11T19:50:19.144Z,35.90
2018-04-11T19:52:48.074Z,36.80
2018-04-11T19:55:14.385Z,36.70
2018-04-11T19:57:41.105Z,37.40
2018-04-11T20:00:07.751Z,36.70
2018-04-11T20:02:34.803Z,37.80
2018-04-11T20:05:01.146Z,37.80
2018-04-11T20:07:27.685Z,37.80
2018-04-11T20:09:54.756Z,37.60
2018-04-11T20:12:21.731Z,38.20
2018-04-11T20:14:48.881Z,38.80
2018-04-11T20:17:16.338Z,38.30
2018-04-11T20:19:43.806Z,38.30
2018-04-11T20:22:10.112Z,38.60
2018-04-11T20:24:38.439Z,39.00
2018-04-11T20:27:05.943Z,39.10
2018-04-11T20:29:33.481Z,39.40
2018-04-11T20:31:59.698Z,39.30
2018-04-11T20:34:26.469Z,39.40
2018-04-11T20:36:54.358Z,39.20
2018-04-11T20:39:20.792Z,39.10
2018-04-11T20:41:47.035Z,39.50
2018-04-11T20:44:14.199Z,39.30
2018-04-11T20:46:40.465Z,39.40
2018-04-11T20:49:06.661Z,39.30
2018-04-11T20:51:32.849Z,39.40
2018-04-11T20:53:59.288Z,39.30
2018-04-11T20:56:25.923Z,39.20
2018-04-11T20:58:53.330Z,39.30
2018-04-11T21:01:21.457Z,39.30
2018-04-11T21:03:47.718Z,39.30
2018-04-11T21:06:14.110Z,39.50
2018-04-11T21:08:40.314Z,39.70
2018-04-11T21:11:07.264Z,39.70
2018-04-11T21:13:34.208Z,39.90
2018-04-11T21:16:02.269Z,39.80
2018-04-11T21:18:28.539Z,39.80
2018-04-11T21:20:55.862Z,39.90
2018-04-11T21:23:22.816Z,40.20
2018-04-11T21:25:49.587Z,40.40
2018-04-11T21:28:15.826Z,40.60
2018-04-11T21:30:43.798Z,40.40
2018-04-11T21:33:10.096Z,40.40
2018-04-11T21:35:36.640Z,40.50
2018-04-11T21:38:03.762Z,40.80
2018-04-11T21:40:30.233Z,40.80
2018-04-11T21:42:56.979Z,41.00
2018-04-11T21:45:23.509Z,41.00
2018-04-11T21:47:51.010Z,41.20
2018-04-11T21:50:18.139Z,41.20
2018-04-11T21:52:45.150Z,41.20
2018-04-11T21:55:11.949Z,41.10
2018-04-11T21:57:39.000Z,41.20
2018-04-11T22:00:06.638Z,41.30
2018-04-11T22:02:33.433Z,41.30
2018-04-11T22:05:00.606Z,41.30
2018-04-11T22:07:26.822Z,41.30
2018-04-11T22:09:54.860Z,41.20
2018-04-11T22:12:21.864Z,41.30
2018-04-11T22:14:48.252Z,41.20
2018-04-11T22:17:14.641Z,41.30
2018-04-11T22:19:40.903Z,41.20
2018-04-11T22:22:07.154Z,41.10
2018-04-11T22:24:34.011Z,41.00
2018-04-11T22:27:00.504Z,40.90
2018-04-11T22:29:27.029Z,41.00
2018-04-11T22:31:54.160Z,41.00
2018-04-11T22:34:21.258Z,40.80
2018-04-11T22:36:48.167Z,40.80
2018-04-11T22:39:16.183Z,40.50
2018-04-11T22:41:42.837Z,40.50
2018-04-11T22:44:10.538Z,40.70
2018-04-11T22:46:37.489Z,40.80
2018-04-11T22:49:04.601Z,40.60
2018-04-11T22:51:30.889Z,40.60
2018-04-11T22:53:57.303Z,40.50
2018-04-11T22:56:23.732Z,40.60
2018-04-11T22:58:50.670Z,40.40
2018-04-11T23:01:18.253Z,40.50
2018-04-11T23:03:44.592Z,40.40
2018-04-11T23:06:11.378Z,40.40
2018-04-11T23:08:39.131Z,40.40
2018-04-11T23:11:05.423Z,40.40
2018-04-11T23:13:31.664Z,40.20
2018-04-11T23:15:58.943Z,40.20
2018-04-11T23:18:25.577Z,40.30
2018-04-11T23:20:52.339Z,40.10
2018-04-11T23:23:19.706Z,40.20
2018-04-11T23:25:46.685Z,40.30
2018-04-11T23:28:12.908Z,40.20
2018-04-11T23:30:39.126Z,40.30
2018-04-11T23:33:06.270Z,40.30
2018-04-11T23:35:32.505Z,40.40
2018-04-11T23:37:59.649Z,40.40
2018-04-11T23:40:26.077Z,40.40
2018-04-11T23:42:53.144Z,40.20
2018-04-11T23:45:19.405Z,40.30
2018-04-11T23:47:46.718Z,40.50
2018-04-11T23:50:13.578Z,40.50
2018-04-11T23:52:40.428Z,40.40
2018-04-11T23:55:06.677Z,40.60
2018-04-11T23:57:33.778Z,40.70
